Val-d'Or Airport
CYVO : now visible

Airfield :











YOU CAN JOIN US ON...

 
LOGIN :

Register | Disclaimer

   EN    FR    IT 

 









Legend :    VFR   Marginal VFR   IFR   Intensive IFR   Very Intensive IFR
Visi :
Ceiling :
>= 8 km
>= 3000ft
5 to 8 km
1000 to 3000 ft
1500m to 5 km
500 to 1000 ft
800 to 1500m
200 to 500 ft
< 800m
< 200 ft
Symbols :   Thunderstorms  Fog  Heavy snow  Heavy precipitations  Wind > 20 kt






- Airport Elevation : 1107 ft
- IATA code : YVO


CYVO - Val-d'Or

CURRENT METAR :
  • 282200Z 01006KT 15SM SCT032 BKN250 M05/M10 A2997 RMK SC3CI1 SLP175

EXPIRED METARs :
  • 282100Z 01006KT 15SM SCT030 SCT250 M05/M10 A2995 RMK SC3CI1 SLP167
  • 282000Z 01008KT 15SM SCT032 BKN250 M04/M10 A2993 RMK SC4CI1 SLP161

TAF TAF CYVO
Valid from the 28 at 18:00 until the 29 at 06:00 UTC


281740Z 2818/2906 35010KT P6SM SCT020
TEMPO 2818/2822 BKN020
BECMG 2821/2822 VRB03KT
FM290500 14005KT P6SM BKN180 RMK NXT FCST BY 290000Z
CZUL FIR / North America



MET'MAP, your aeronautical weather chart ! - Copyright ORBIFLY December 2007 - Disclaimer

ORBIFLY MET'MAP TEAM :

Programming & Development : Alexandra Zaïnal
Original concept : Baudouin d'Aumeries
Technical & hardware support : Manuel Goepfert
Assistance : Marc-Olivier Méhu




SOURCES & CREDITS :

   NOAA       Earth
Advisory